createdAt,value
2022-10-17T00:02:05.647Z,12.69
2022-10-17T00:07:07.810Z,12.72
2022-10-17T00:09:37.923Z,12.73
2022-10-17T00:12:07.223Z,12.74
2022-10-17T00:14:35.926Z,12.80
2022-10-17T00:17:05.195Z,12.83
2022-10-17T00:19:33.857Z,12.82
2022-10-17T00:22:02.486Z,12.81
2022-10-17T00:24:32.535Z,12.80
2022-10-17T00:27:02.739Z,12.86
2022-10-17T00:29:31.408Z,12.81
2022-10-17T00:32:00.119Z,12.88
2022-10-17T00:34:32.104Z,12.89
2022-10-17T00:37:00.748Z,12.88
2022-10-17T00:39:29.306Z,12.90
2022-10-17T00:41:58.569Z,12.94
2022-10-17T00:45:19.693Z,12.93
2022-10-17T00:47:54.551Z,12.99
2022-10-17T00:50:25.285Z,12.98
2022-10-17T00:52:55.688Z,12.97
2022-10-17T00:55:30.494Z,12.92
2022-10-17T00:58:03.216Z,12.87
2022-10-17T01:00:33.665Z,12.95
2022-10-17T01:03:02.482Z,12.96
2022-10-17T01:05:31.913Z,12.95
2022-10-17T01:08:01.018Z,13.01
2022-10-17T01:10:40.324Z,13.06
2022-10-17T01:13:20.316Z,13.13
2022-10-17T01:16:09.936Z,13.15
2022-10-17T01:19:01.607Z,13.22
2022-10-17T01:21:51.993Z,13.22
2022-10-17T01:25:08.761Z,13.27
2022-10-17T01:28:11.591Z,13.24
2022-10-17T01:31:10.935Z,13.23
2022-10-17T01:33:49.703Z,13.24
2022-10-17T01:36:37.015Z,13.15
2022-10-17T01:39:20.034Z,13.15
2022-10-17T01:41:58.288Z,13.11
2022-10-17T01:44:39.940Z,13.01
2022-10-17T01:47:18.630Z,13.06
2022-10-17T01:49:52.658Z,13.09
2022-10-17T01:52:26.232Z,13.13
2022-10-17T01:54:59.845Z,13.14
2022-10-17T01:57:35.841Z,13.11
2022-10-17T02:00:10.307Z,13.09
2022-10-17T02:02:46.485Z,13.14
2022-10-17T02:05:17.318Z,13.08
2022-10-17T02:07:46.052Z,13.06
2022-10-17T02:10:26.830Z,12.98
2022-10-17T02:13:07.640Z,12.97
2022-10-17T02:15:55.262Z,12.92
2022-10-17T02:18:48.242Z,12.92
2022-10-17T02:21:52.509Z,12.90
2022-10-17T02:24:34.743Z,12.85
2022-10-17T02:27:13.314Z,12.79
2022-10-17T02:29:50.049Z,12.76
2022-10-17T02:32:26.045Z,12.70
2022-10-17T02:34:59.657Z,12.69
2022-10-17T02:37:32.795Z,12.67
2022-10-17T02:40:04.348Z,12.61
2022-10-17T02:42:34.328Z,12.57
2022-10-17T02:45:08.257Z,12.63
2022-10-17T02:47:50.767Z,12.61
2022-10-17T02:53:10.165Z,12.49
2022-10-17T02:55:49.593Z,12.47
2022-10-17T02:58:26.293Z,12.45
2022-10-17T03:00:55.723Z,12.44
2022-10-17T03:03:27.334Z,12.38
2022-10-17T03:05:58.099Z,12.38
2022-10-17T03:08:28.187Z,12.36
2022-10-17T03:10:58.183Z,12.25
2022-10-17T03:13:29.928Z,12.25
2022-10-17T03:15:59.313Z,12.20
2022-10-17T03:18:28.602Z,12.17
2022-10-17T03:21:02.845Z,12.10
2022-10-17T03:23:31.831Z,12.19
2022-10-17T03:26:05.317Z,12.19
2022-10-17T03:28:36.244Z,12.17
2022-10-17T03:31:09.646Z,12.18
2022-10-17T03:33:39.799Z,12.14
2022-10-17T03:36:14.117Z,12.15
2022-10-17T03:38:45.414Z,12.12
2022-10-17T03:41:14.546Z,12.14
2022-10-17T03:43:43.950Z,12.16
2022-10-17T03:46:12.873Z,12.20
2022-10-17T03:48:41.665Z,12.16
2022-10-17T03:51:12.266Z,12.13
2022-10-17T03:53:46.434Z,12.20
2022-10-17T03:56:18.402Z,12.13
2022-10-17T03:58:53.467Z,12.06
2022-10-17T04:01:23.625Z,12.09
2022-10-17T04:03:53.322Z,12.08
2022-10-17T04:06:24.284Z,12.08
2022-10-17T04:08:52.972Z,12.06
2022-10-17T04:11:29.178Z,12.02
2022-10-17T04:14:01.594Z,12.01
2022-10-17T04:16:31.927Z,11.97
2022-10-17T04:19:13.230Z,11.96
2022-10-17T04:21:48.004Z,11.95
2022-10-17T04:24:17.441Z,11.92
2022-10-17T04:26:52.227Z,11.92
2022-10-17T04:29:23.010Z,11.94
2022-10-17T04:31:54.114Z,11.96
2022-10-17T04:34:45.557Z,11.92
2022-10-17T04:37:16.420Z,11.91
2022-10-17T04:39:47.312Z,11.95
2022-10-17T04:42:17.088Z,11.94
2022-10-17T04:44:45.874Z,11.97
2022-10-17T04:47:17.741Z,12.04
2022-10-17T04:49:46.509Z,11.91
2022-10-17T04:52:18.843Z,11.94
2022-10-17T04:54:52.138Z,11.82
2022-10-17T04:57:21.412Z,11.82
2022-10-17T05:00:03.889Z,11.77
2022-10-17T05:02:58.710Z,11.70
2022-10-17T05:05:28.640Z,11.68
2022-10-17T05:07:59.854Z,11.66
2022-10-17T05:10:36.876Z,11.60
2022-10-17T05:13:06.948Z,11.48
2022-10-17T05:15:39.002Z,11.46
2022-10-17T05:18:08.469Z,11.45
2022-10-17T05:20:38.213Z,11.38
2022-10-17T05:23:09.740Z,11.29
2022-10-17T05:25:42.419Z,11.24
2022-10-17T05:28:11.236Z,11.20
2022-10-17T05:30:42.303Z,11.21
2022-10-17T05:33:11.796Z,11.20
2022-10-17T05:35:41.604Z,11.10
2022-10-17T05:38:11.712Z,11.10
2022-10-17T05:40:42.840Z,11.13
2022-10-17T05:43:12.081Z,11.13
2022-10-17T05:45:41.017Z,11.19
2022-10-17T05:48:14.180Z,11.03
2022-10-17T05:50:42.941Z,11.03
2022-10-17T05:53:18.721Z,11.01
2022-10-17T05:56:06.053Z,10.83
2022-10-17T05:58:49.803Z,10.70
2022-10-17T06:01:42.395Z,10.70
2022-10-17T06:04:11.602Z,10.67
2022-10-17T06:06:41.902Z,10.66
2022-10-17T06:09:12.957Z,10.76
2022-10-17T06:11:45.400Z,10.92
2022-10-17T06:14:14.566Z,11.08
2022-10-17T06:16:43.956Z,11.15
2022-10-17T06:19:12.832Z,11.23
2022-10-17T06:21:42.262Z,11.21
2022-10-17T06:24:18.300Z,11.16
2022-10-17T06:26:49.868Z,11.38
2022-10-17T06:29:19.310Z,11.36
2022-10-17T06:31:50.804Z,11.40
2022-10-17T06:34:20.716Z,11.46
2022-10-17T06:36:49.918Z,11.49
2022-10-17T06:39:22.049Z,11.59
2022-10-17T06:42:03.590Z,11.59
2022-10-17T06:44:48.694Z,11.64
2022-10-17T06:47:33.805Z,11.69
2022-10-17T06:50:09.973Z,11.64
2022-10-17T06:52:45.904Z,11.70
2022-10-17T06:55:35.730Z,11.80
2022-10-17T06:58:26.045Z,11.81
2022-10-17T07:03:44.904Z,11.80
2022-10-17T07:06:13.930Z,11.81
2022-10-17T07:08:45.797Z,11.81
2022-10-17T07:11:22.183Z,11.79
2022-10-17T07:13:53.687Z,11.83
2022-10-17T07:16:24.012Z,11.81
2022-10-17T07:19:05.944Z,11.85
2022-10-17T07:21:39.303Z,11.92
2022-10-17T07:24:10.124Z,11.88
2022-10-17T07:26:41.347Z,11.87
2022-10-17T07:29:11.355Z,11.82
2022-10-17T07:31:56.156Z,11.83
2022-10-17T07:34:27.574Z,11.85
2022-10-17T07:36:56.826Z,11.81
2022-10-17T07:39:25.654Z,11.77
2022-10-17T07:41:56.032Z,11.64
2022-10-17T07:44:25.940Z,11.59
2022-10-17T07:46:55.941Z,11.55
2022-10-17T07:49:25.362Z,11.41
2022-10-17T07:51:54.080Z,11.39
2022-10-17T07:54:22.786Z,11.31
2022-10-17T07:56:51.575Z,11.33
2022-10-17T07:59:21.940Z,11.21
2022-10-17T08:01:50.614Z,11.13
2022-10-17T08:04:19.242Z,11.08
2022-10-17T08:06:50.853Z,10.99
2022-10-17T08:09:22.546Z,10.99
2022-10-17T08:11:51.304Z,10.94
2022-10-17T08:14:22.109Z,10.81
2022-10-17T08:16:50.945Z,10.77
2022-10-17T08:19:25.589Z,10.80
2022-10-17T08:21:54.553Z,10.75
2022-10-17T08:24:23.341Z,10.76
2022-10-17T08:26:53.431Z,10.67
2022-10-17T08:29:23.593Z,10.64
2022-10-17T08:31:56.275Z,10.68
2022-10-17T08:34:29.743Z,10.61
2022-10-17T08:36:58.486Z,10.62
2022-10-17T08:39:27.341Z,10.57
2022-10-17T08:42:13.454Z,10.57
2022-10-17T08:45:01.510Z,10.57
2022-10-17T08:47:39.499Z,10.55
2022-10-17T08:50:17.219Z,10.64
2022-10-17T08:52:53.517Z,10.62
2022-10-17T08:55:32.231Z,10.58
2022-10-17T08:58:01.374Z,10.58
2022-10-17T09:00:33.977Z,10.59
2022-10-17T09:03:23.758Z,10.57
2022-10-17T09:06:12.342Z,10.61
2022-10-17T09:08:54.434Z,10.63
2022-10-17T09:11:47.639Z,10.57
2022-10-17T09:15:03.526Z,10.57
2022-10-17T09:17:52.673Z,10.57
2022-10-17T09:20:25.925Z,10.59
2022-10-17T09:23:00.314Z,10.62
2022-10-17T09:25:29.845Z,10.67
2022-10-17T09:28:12.294Z,10.68
2022-10-17T09:30:46.499Z,10.64
2022-10-17T09:33:34.503Z,10.61
2022-10-17T09:36:12.337Z,10.61
2022-10-17T09:38:44.552Z,10.59
2022-10-17T09:44:21.764Z,10.67
2022-10-17T09:47:10.026Z,10.61
2022-10-17T09:49:42.671Z,10.60
2022-10-17T09:52:16.530Z,10.64
2022-10-17T09:54:49.205Z,10.63
2022-10-17T09:57:20.622Z,10.67
2022-10-17T09:59:58.923Z,10.71
2022-10-17T10:02:30.867Z,10.84
2022-10-17T10:05:06.705Z,10.79
2022-10-17T10:07:40.069Z,10.83
2022-10-17T10:10:27.790Z,10.88
2022-10-17T10:13:21.508Z,10.93
2022-10-17T10:15:52.283Z,10.92
2022-10-17T10:18:35.791Z,11.01
2022-10-17T10:21:11.283Z,10.91
2022-10-17T10:23:41.760Z,11.01
2022-10-17T10:26:27.201Z,11.03
2022-10-17T10:29:01.080Z,11.08
2022-10-17T10:31:37.371Z,11.12
2022-10-17T10:34:21.095Z,11.06
2022-10-17T10:37:03.929Z,11.21
2022-10-17T10:39:48.484Z,11.31
2022-10-17T10:42:31.179Z,11.25
2022-10-17T10:45:05.209Z,11.36
2022-10-17T10:47:35.167Z,11.52
2022-10-17T10:50:25.518Z,11.65
2022-10-17T10:53:11.502Z,11.71
2022-10-17T10:55:48.206Z,11.72
2022-10-17T10:58:36.809Z,11.75
2022-10-17T11:01:16.842Z,11.77
2022-10-17T11:04:07.950Z,11.85
2022-10-17T11:06:41.185Z,11.83
2022-10-17T11:09:33.749Z,11.87
2022-10-17T11:12:11.984Z,11.85
2022-10-17T11:14:49.019Z,11.96
2022-10-17T11:17:30.249Z,11.99
2022-10-17T11:20:15.176Z,12.02
2022-10-17T11:22:48.462Z,11.99
2022-10-17T11:25:33.449Z,12.01
2022-10-17T11:28:05.089Z,12.07
2022-10-17T11:30:47.208Z,12.06
2022-10-17T11:33:26.823Z,12.05
2022-10-17T11:36:07.326Z,12.08
2022-10-17T11:38:47.172Z,12.06
2022-10-17T11:41:23.581Z,12.02
2022-10-17T11:43:58.832Z,11.97
2022-10-17T11:46:30.591Z,12.00
2022-10-17T11:49:14.965Z,11.90
2022-10-17T11:52:02.318Z,11.98
2022-10-17T11:54:39.498Z,12.04
2022-10-17T11:57:36.104Z,11.98
2022-10-17T12:00:28.237Z,11.99
2022-10-17T12:03:18.825Z,12.01
2022-10-17T12:05:57.206Z,12.07
2022-10-17T12:08:34.839Z,12.10
2022-10-17T12:11:15.593Z,12.08
2022-10-17T12:13:55.323Z,12.18
2022-10-17T12:16:46.265Z,12.08
2022-10-17T12:19:39.290Z,12.17
2022-10-17T12:22:21.598Z,12.13
2022-10-17T12:25:01.917Z,12.13
2022-10-17T12:27:42.499Z,12.13
2022-10-17T12:30:27.200Z,12.15
2022-10-17T12:33:06.525Z,12.20
2022-10-17T12:35:38.935Z,12.17
2022-10-17T12:38:27.929Z,12.20
2022-10-17T12:40:59.536Z,12.16
2022-10-17T12:43:53.915Z,12.17
2022-10-17T12:47:30.825Z,12.21
2022-10-17T12:50:00.290Z,12.20
2022-10-17T12:53:07.539Z,12.16
2022-10-17T12:55:37.621Z,12.17
2022-10-17T12:58:15.599Z,12.16
2022-10-17T13:03:48.472Z,12.23
2022-10-17T13:06:25.155Z,12.22
2022-10-17T13:09:03.488Z,12.22
2022-10-17T13:11:37.900Z,12.22
2022-10-17T13:14:16.342Z,12.23
2022-10-17T13:16:54.755Z,12.24
2022-10-17T13:19:27.446Z,12.28
2022-10-17T13:22:01.035Z,12.18
2022-10-17T13:24:35.341Z,12.20
2022-10-17T13:27:05.313Z,12.17
2022-10-17T13:29:34.624Z,12.16
2022-10-17T13:32:07.061Z,12.19
2022-10-17T13:34:37.250Z,12.25
2022-10-17T13:37:09.658Z,12.23
2022-10-17T13:39:55.251Z,12.13
2022-10-17T13:42:30.313Z,12.16
2022-10-17T13:45:00.744Z,12.14
2022-10-17T13:47:35.240Z,12.08
2022-10-17T13:50:26.296Z,12.08
2022-10-17T13:53:26.266Z,12.08
2022-10-17T13:56:22.877Z,12.07
2022-10-17T13:58:52.045Z,12.05
2022-10-17T14:01:22.922Z,12.00
2022-10-17T14:04:07.167Z,12.04
2022-10-17T14:06:47.887Z,12.04
2022-10-17T14:09:24.682Z,12.04
2022-10-17T14:12:04.638Z,12.01
2022-10-17T14:14:51.703Z,12.00
2022-10-17T14:17:27.588Z,12.01
2022-10-17T14:25:42.926Z,11.99
2022-10-17T14:28:18.498Z,11.94
2022-10-17T14:30:56.653Z,11.92
2022-10-17T14:33:30.409Z,11.97
2022-10-17T14:36:02.390Z,11.92
2022-10-17T14:38:33.232Z,11.90
2022-10-17T14:41:37.764Z,11.96
2022-10-17T14:44:03.012Z,11.93
2022-10-17T14:46:32.392Z,11.93
2022-10-17T14:49:08.621Z,11.90
2022-10-17T14:51:50.675Z,11.87
2022-10-17T14:54:30.306Z,11.79
2022-10-17T14:56:59.105Z,11.81
2022-10-17T14:59:52.985Z,11.84
2022-10-17T15:02:17.275Z,11.78
2022-10-17T15:04:46.152Z,11.78
2022-10-17T15:07:17.107Z,11.73
2022-10-17T15:09:50.613Z,11.77
2022-10-17T15:12:22.109Z,11.73
2022-10-17T15:14:52.573Z,11.78
2022-10-17T15:17:25.877Z,11.76
2022-10-17T15:19:55.619Z,11.76
2022-10-17T15:22:24.967Z,11.81
2022-10-17T15:24:55.438Z,11.77
2022-10-17T15:27:27.802Z,11.73
2022-10-17T15:29:56.795Z,11.74
2022-10-17T15:32:26.043Z,11.73
2022-10-17T15:34:54.830Z,11.72
2022-10-17T15:37:26.488Z,11.72
2022-10-17T15:39:57.269Z,11.66
2022-10-17T15:42:30.897Z,11.70
2022-10-17T15:45:02.462Z,11.69
2022-10-17T15:47:34.731Z,11.69
2022-10-17T15:50:04.954Z,11.67
2022-10-17T15:52:34.327Z,11.69
2022-10-17T15:55:05.486Z,11.59
2022-10-17T15:57:39.576Z,11.62
2022-10-17T16:00:16.804Z,11.64
2022-10-17T16:02:46.583Z,11.59
2022-10-17T16:05:23.302Z,11.60
2022-10-17T16:07:53.620Z,11.55
2022-10-17T16:10:25.745Z,11.62
2022-10-17T16:12:55.290Z,11.56
2022-10-17T16:15:28.106Z,11.52
2022-10-17T16:18:01.707Z,11.58
2022-10-17T16:20:33.593Z,11.55
2022-10-17T16:23:03.382Z,11.50
2022-10-17T16:25:34.812Z,11.55
2022-10-17T16:28:04.630Z,11.41
2022-10-17T16:30:45.157Z,11.46
2022-10-17T16:33:14.526Z,11.45
2022-10-17T16:35:45.851Z,11.49
2022-10-17T16:38:15.196Z,11.46
2022-10-17T16:40:46.018Z,11.50
2022-10-17T16:43:15.729Z,11.36
2022-10-17T16:45:45.221Z,11.31
2022-10-17T16:48:14.933Z,11.33
2022-10-17T16:50:44.276Z,11.36
2022-10-17T16:53:13.528Z,11.34
2022-10-17T16:55:42.811Z,11.36
2022-10-17T16:58:15.090Z,11.31
2022-10-17T17:00:47.125Z,11.24
2022-10-17T17:03:19.740Z,11.17
2022-10-17T17:05:52.857Z,11.18
2022-10-17T17:08:22.239Z,11.27
2022-10-17T17:10:51.731Z,11.39
2022-10-17T17:13:22.835Z,11.38
2022-10-17T17:15:54.233Z,11.30
2022-10-17T17:18:24.120Z,11.19
2022-10-17T17:20:58.450Z,11.36
2022-10-17T17:23:27.972Z,11.43
2022-10-17T17:26:01.891Z,11.40
2022-10-17T17:28:34.230Z,11.43
2022-10-17T17:31:07.584Z,11.48
2022-10-17T17:33:38.903Z,11.46
2022-10-17T17:36:18.803Z,11.48
2022-10-17T17:38:50.096Z,11.48
2022-10-17T17:41:22.437Z,11.47
2022-10-17T17:43:56.072Z,11.43
2022-10-17T17:46:26.804Z,11.40
2022-10-17T17:48:57.626Z,11.52
2022-10-17T17:51:29.466Z,11.46
2022-10-17T17:54:02.277Z,11.55
2022-10-17T17:56:32.315Z,11.54
2022-10-17T17:59:04.352Z,11.57
2022-10-17T18:01:39.410Z,11.48
2022-10-17T18:04:10.866Z,11.55
2022-10-17T18:06:41.955Z,11.54
2022-10-17T18:09:13.364Z,11.59
2022-10-17T18:11:44.859Z,11.57
2022-10-17T18:14:16.031Z,11.53
2022-10-17T18:16:45.593Z,11.56
2022-10-17T18:19:15.085Z,11.51
2022-10-17T18:21:44.725Z,11.54
2022-10-17T18:24:16.195Z,11.43
2022-10-17T18:26:45.797Z,11.46
2022-10-17T18:29:19.767Z,11.40
2022-10-17T18:31:49.351Z,11.49
2022-10-17T18:34:18.906Z,11.41
2022-10-17T18:36:48.642Z,11.49
2022-10-17T18:39:21.565Z,11.50
2022-10-17T18:41:51.110Z,11.38
2022-10-17T18:44:22.040Z,11.37
2022-10-17T18:46:51.563Z,11.43
2022-10-17T18:49:23.481Z,11.51
2022-10-17T18:51:56.230Z,11.51
2022-10-17T18:54:29.550Z,11.52
2022-10-17T18:57:02.121Z,11.57
2022-10-17T18:59:33.222Z,11.54
2022-10-17T19:02:02.923Z,11.55
2022-10-17T19:04:37.867Z,11.62
2022-10-17T19:07:07.443Z,11.61
2022-10-17T19:09:37.039Z,11.67
2022-10-17T19:12:08.649Z,11.58
2022-10-17T19:14:39.973Z,11.65
2022-10-17T19:17:09.560Z,11.58
2022-10-17T19:19:39.676Z,11.64
2022-10-17T19:22:10.685Z,11.61
2022-10-17T19:24:40.372Z,11.58
2022-10-17T19:27:17.369Z,11.57
2022-10-17T19:30:08.085Z,11.63
2022-10-17T19:32:37.860Z,11.57
2022-10-17T19:35:08.588Z,11.62
2022-10-17T19:37:38.077Z,11.52
2022-10-17T19:40:09.294Z,11.52
2022-10-17T19:42:38.761Z,11.53
2022-10-17T19:45:11.637Z,11.45
2022-10-17T19:47:43.747Z,11.29
2022-10-17T19:50:15.814Z,11.24
2022-10-17T19:52:45.199Z,11.21
2022-10-17T19:55:14.835Z,11.21
2022-10-17T19:57:44.097Z,11.20
2022-10-17T20:00:16.788Z,11.15
2022-10-17T20:02:46.402Z,11.13
2022-10-17T20:05:18.907Z,11.06
2022-10-17T20:07:49.044Z,11.04
2022-10-17T20:10:19.216Z,11.03
2022-10-17T20:12:48.614Z,11.01
2022-10-17T20:15:19.537Z,10.98
2022-10-17T20:17:49.033Z,11.05
2022-10-17T20:20:18.919Z,10.97
2022-10-17T20:22:48.747Z,10.87
2022-10-17T20:25:18.423Z,10.92
2022-10-17T20:27:47.793Z,10.92
2022-10-17T20:30:37.337Z,10.81
2022-10-17T20:33:06.756Z,10.82
2022-10-17T20:35:36.433Z,10.84
2022-10-17T20:38:06.067Z,10.80
2022-10-17T20:40:35.875Z,10.82
2022-10-17T20:43:09.852Z,10.82
2022-10-17T20:45:51.566Z,10.73
2022-10-17T20:48:21.212Z,10.69
2022-10-17T20:50:51.698Z,10.69
2022-10-17T20:53:37.845Z,10.61
2022-10-17T20:56:12.409Z,10.63
2022-10-17T20:58:41.093Z,10.64
2022-10-17T21:01:12.577Z,10.55
2022-10-17T21:03:44.044Z,10.62
2022-10-17T21:06:16.784Z,10.56
2022-10-17T21:08:46.235Z,10.57
2022-10-17T21:11:19.340Z,10.49
2022-10-17T21:13:57.682Z,10.45
2022-10-17T21:16:30.735Z,10.50
2022-10-17T21:19:02.329Z,10.41
2022-10-17T21:21:34.775Z,10.41
2022-10-17T21:24:06.530Z,10.32
2022-10-17T21:26:37.966Z,10.29
2022-10-17T21:29:07.895Z,10.32
2022-10-17T21:31:40.605Z,10.32
2022-10-17T21:34:12.149Z,10.26
2022-10-17T21:36:41.589Z,10.27
2022-10-17T21:39:12.036Z,10.29
2022-10-17T21:41:41.043Z,10.29
2022-10-17T21:44:14.860Z,10.25
2022-10-17T21:46:46.822Z,10.32
2022-10-17T21:49:22.742Z,10.33
2022-10-17T21:51:53.197Z,10.36
2022-10-17T21:54:23.648Z,10.33
2022-10-17T21:56:53.951Z,10.38
2022-10-17T21:59:22.793Z,10.38
2022-10-17T22:01:52.892Z,10.28
2022-10-17T22:04:22.146Z,10.24
2022-10-17T22:06:54.849Z,10.28
2022-10-17T22:09:26.157Z,10.26
2022-10-17T22:11:57.961Z,10.17
2022-10-17T22:14:29.746Z,10.17
2022-10-17T22:17:01.552Z,10.10
2022-10-17T22:19:31.396Z,10.07
2022-10-17T22:22:00.162Z,10.10
2022-10-17T22:24:29.100Z,10.04
2022-10-17T22:26:57.944Z,10.04
2022-10-17T22:29:26.748Z,10.01
2022-10-17T22:31:56.958Z,9.96
2022-10-17T22:34:27.645Z,9.99
2022-10-17T22:36:56.659Z,9.94
2022-10-17T22:39:25.472Z,9.83
2022-10-17T22:41:54.299Z,9.87
2022-10-17T22:44:23.341Z,9.87
2022-10-17T22:46:52.259Z,9.82
2022-10-17T22:49:21.032Z,9.80
2022-10-17T22:51:51.062Z,9.80
2022-10-17T22:54:19.797Z,9.78
2022-10-17T22:56:48.561Z,9.77
2022-10-17T22:59:17.423Z,9.76
2022-10-17T23:01:46.203Z,9.73
2022-10-17T23:04:15.492Z,9.75
2022-10-17T23:06:44.433Z,9.70
2022-10-17T23:09:15.677Z,9.66
2022-10-17T23:11:44.455Z,9.66
2022-10-17T23:14:13.499Z,9.69
2022-10-17T23:16:42.237Z,9.63
2022-10-17T23:19:10.981Z,9.61
2022-10-17T23:21:39.638Z,9.60
2022-10-17T23:24:08.576Z,9.62
2022-10-17T23:26:38.786Z,9.59
2022-10-17T23:29:07.572Z,9.50
2022-10-17T23:31:36.540Z,9.54
2022-10-17T23:34:05.315Z,9.53
2022-10-17T23:36:34.942Z,9.57
2022-10-17T23:39:04.132Z,9.55
2022-10-17T23:41:33.878Z,9.47
2022-10-17T23:44:03.980Z,9.49
2022-10-17T23:46:33.431Z,9.50
2022-10-17T23:49:02.161Z,9.53
2022-10-17T23:51:30.829Z,9.52
2022-10-17T23:53:59.575Z,9.50
2022-10-17T23:56:28.309Z,9.46
2022-10-17T23:58:57.137Z,9.50
